Time;durP1;ratioP1;P1;durP2;ratioP2;P2;SDS_P1;SDS_P2;PMS_P1;PMS_P2;Temp;Humidity;BMP_temperature;BMP_pressure;BME280_temperature;BME280_humidity;BME280_pressure;Samples;Min_cycle;Max_cycle;Signal;HPM_P1;HPM_P2
2021/04/23 00:02:16;;;;;;;17.90;10.10;;;;;;;4.23;74.33;100519.75;1663193;84;25928;-79
2021/04/23 00:04:41;;;;;;;22.90;11.13;;;;;;;4.25;74.09;100521.73;1680271;84;27302;-79
2021/04/23 00:07:07;;;;;;;15.90;10.00;;;;;;;4.25;73.98;100517.03;1662448;84;25799;-79
2021/04/23 00:09:36;;;;;;;16.93;10.53;;;;;;;4.26;74.14;100526.45;1677468;83;25818;-74
2021/04/23 00:12:10;;;;;;;15.53;9.83;;;;;;;4.26;73.99;100525.98;1708614;82;25339;-75
2021/04/23 00:14:41;;;;;;;15.88;8.60;;;;;;;4.27;74.49;100521.62;1699920;83;25902;-75
2021/04/23 00:17:09;;;;;;;19.65;9.53;;;;;;;4.26;74.44;100519.98;1653362;85;25772;-74
2021/04/23 00:19:36;;;;;;;18.00;8.00;;;;;;;4.25;74.33;100519.61;1666790;84;25309;-75
2021/04/23 00:22:04;;;;;;;15.18;7.53;;;;;;;4.25;74.35;100520.43;1693832;83;25829;-74
2021/04/23 00:24:30;;;;;;;15.55;7.97;;;;;;;4.24;74.52;100520.09;1652546;85;25985;-74
2021/04/23 00:26:56;;;;;;;15.83;7.67;;;;;;;4.23;74.70;100521.86;1666498;84;25389;-74
2021/04/23 00:29:22;;;;;;;21.00;8.63;;;;;;;4.21;74.83;100525.03;1699223;83;27252;-74
2021/04/23 00:34:34;;;;;;;21.42;9.40;;;;;;;4.19;74.59;100520.44;1693869;83;26673;-79
2021/04/23 00:37:00;;;;;;;14.37;9.00;;;;;;;4.17;74.79;100522.80;1695695;82;25738;-78
2021/04/23 00:39:27;;;;;;;15.05;7.72;;;;;;;4.15;74.63;100528.11;1692776;83;25734;-78
2021/04/23 00:41:53;;;;;;;18.25;8.25;;;;;;;4.13;74.68;100523.52;1694116;83;25807;-74
2021/04/23 00:44:19;;;;;;;15.63;8.50;;;;;;;4.12;74.87;100528.80;1660123;84;26568;-75
2021/04/23 00:46:45;;;;;;;18.62;9.13;;;;;;;4.10;75.14;100534.58;1657382;85;26414;-74
2021/04/23 00:49:12;;;;;;;17.70;9.67;;;;;;;4.10;74.64;100527.64;1665612;84;25415;-74
2021/04/23 00:51:46;;;;;;;17.15;9.43;;;;;;;4.10;74.94;100525.05;1670955;84;25856;-75
2021/04/23 00:54:14;;;;;;;13.60;8.28;;;;;;;4.07;74.95;100536.11;1668475;84;25868;-75
2021/04/23 00:56:40;;;;;;;17.27;8.55;;;;;;;4.06;75.03;100536.56;1667362;84;26397;-75
2021/04/23 00:59:11;;;;;;;15.05;8.48;;;;;;;4.03;75.55;100533.40;1678520;84;26742;-74
2021/04/23 01:01:45;;;;;;;14.90;8.03;;;;;;;4.02;75.03;100535.64;1688383;83;25730;-74
2021/04/23 01:04:15;;;;;;;12.85;7.08;;;;;;;4.01;74.85;100534.83;1665975;84;25929;-74
2021/04/23 01:06:41;;;;;;;15.65;8.08;;;;;;;4.02;75.05;100534.34;1697700;83;25693;-75
2021/04/23 01:09:18;;;;;;;15.23;7.73;;;;;;;4.01;75.37;100536.12;1702860;83;25985;-74
2021/04/23 01:11:45;;;;;;;15.38;7.80;;;;;;;4.02;74.92;100536.94;1697622;83;26506;-74
2021/04/23 01:14:11;;;;;;;15.83;7.60;;;;;;;3.99;75.24;100535.41;1646205;85;26395;-75
2021/04/23 01:16:39;;;;;;;15.10;7.87;;;;;;;3.98;75.63;100538.47;1667214;84;25849;-74
2021/04/23 01:19:09;;;;;;;16.40;7.30;;;;;;;3.97;74.96;100528.23;1666526;84;25983;-75
2021/04/23 01:21:36;;;;;;;18.50;7.65;;;;;;;3.96;74.87;100523.53;1667790;84;25843;-79
2021/04/23 01:24:05;;;;;;;19.70;8.40;;;;;;;3.97;74.97;100527.75;1647813;85;25921;-78
2021/04/23 01:26:44;;;;;;;18.70;7.90;;;;;;;3.98;74.78;100532.45;1695112;83;26415;-78
2021/04/23 01:29:13;;;;;;;15.18;7.92;;;;;;;3.95;74.61;100532.21;1695899;83;26616;-79
2021/04/23 01:31:44;;;;;;;15.03;7.67;;;;;;;3.94;74.53;100530.58;1664211;84;25778;-78
2021/04/23 01:34:14;;;;;;;15.60;8.03;;;;;;;3.92;74.54;100527.28;1669909;84;25853;-79
2021/04/23 01:36:43;;;;;;;16.27;8.50;;;;;;;3.90;74.48;100534.36;1671398;84;25922;-79
2021/04/23 01:39:14;;;;;;;15.28;9.15;;;;;;;3.89;74.36;100532.69;1663562;84;25939;-78
2021/04/23 01:41:41;;;;;;;14.33;7.83;;;;;;;3.89;74.32;100533.17;1671915;84;25847;-78
2021/04/23 01:44:10;;;;;;;17.55;9.73;;;;;;;3.88;74.40;100534.12;1676667;84;25990;-79
2021/04/23 01:46:36;;;;;;;16.05;9.20;;;;;;;3.86;74.38;100541.16;1697185;83;26360;-78
2021/04/23 01:49:09;;;;;;;15.43;10.15;;;;;;;3.85;74.38;100531.77;1666591;84;26590;-78
2021/04/23 01:51:34;;;;;;;17.32;10.68;;;;;;;3.82;74.29;100541.87;1677663;84;26510;-78
2021/04/23 01:54:00;;;;;;;23.03;10.87;;;;;;;3.80;74.54;100541.64;1692993;83;25851;-78
2021/04/23 01:56:26;;;;;;;16.83;8.43;;;;;;;3.76;74.37;100539.28;1694829;83;26475;-78
2021/04/23 01:58:52;;;;;;;21.63;9.57;;;;;;;3.76;74.44;100544.91;1696775;83;25798;-78
2021/04/23 02:01:17;;;;;;;18.07;8.33;;;;;;;3.73;74.35;100545.95;1696250;83;26598;-78
2021/04/23 02:03:44;;;;;;;20.97;9.57;;;;;;;3.70;74.72;100543.61;1692388;83;25899;-75
2021/04/23 02:06:12;;;;;;;13.98;9.00;;;;;;;3.69;74.34;100542.45;1666559;84;25392;-74
2021/04/23 02:08:38;;;;;;;17.40;10.30;;;;;;;3.69;74.53;100544.55;1696634;83;25814;-74
2021/04/23 02:11:12;;;;;;;25.15;11.28;;;;;;;3.68;74.49;100545.51;1694237;83;25887;-75
2021/04/23 02:13:41;;;;;;;18.17;10.20;;;;;;;3.64;74.41;100552.31;1695669;83;25828;-74
2021/04/23 02:16:10;;;;;;;18.25;11.25;;;;;;;3.60;74.48;100551.72;1680409;84;25851;-74
2021/04/23 02:18:37;;;;;;;16.27;9.43;;;;;;;3.59;74.41;100555.23;1698672;83;25910;-74
2021/04/23 02:21:05;;;;;;;21.62;11.68;;;;;;;3.59;74.73;100555.23;1698498;83;25804;-75
2021/04/23 02:23:31;;;;;;;19.42;10.00;;;;;;;3.56;74.32;100561.45;1696065;83;25345;-75
2021/04/23 02:25:57;;;;;;;14.75;7.97;;;;;;;3.53;74.54;100555.70;1690992;83;25794;-74
2021/04/23 02:28:23;;;;;;;16.90;8.03;;;;;;;3.50;74.59;100561.09;1689318;83;25760;-74
2021/04/23 02:31:04;;;;;;;13.13;7.80;;;;;;;3.45;74.57;100554.97;1650268;85;25802;-74
2021/04/23 02:33:31;;;;;;;15.75;9.00;;;;;;;3.45;74.67;100554.16;1675670;84;25326;-74
2021/04/23 02:35:59;;;;;;;19.07;8.33;;;;;;;3.43;74.54;100563.77;1695869;83;26577;-74
2021/04/23 02:38:27;;;;;;;16.50;8.33;;;;;;;3.45;74.74;100560.14;1698055;83;26544;-73
2021/04/23 02:40:54;;;;;;;20.00;9.50;;;;;;;3.41;74.82;100563.05;1698107;83;26505;-73
2021/04/23 02:43:25;;;;;;;16.30;8.75;;;;;;;3.34;74.96;100566.09;1698252;83;25853;-73
2021/04/23 02:45:52;;;;;;;16.60;9.65;;;;;;;3.32;75.03;100573.13;1696422;83;25826;-74
2021/04/23 02:48:22;;;;;;;16.40;9.68;;;;;;;3.30;75.09;100576.76;1697224;83;25353;-74
2021/04/23 02:50:53;;;;;;;23.07;9.80;;;;;;;3.28;75.04;100575.59;1693526;83;25674;-74
2021/04/23 02:53:19;;;;;;;17.77;8.50;;;;;;;3.25;75.22;100578.88;1694733;83;26693;-74
2021/04/23 02:55:46;;;;;;;16.32;8.48;;;;;;;3.21;74.97;100582.13;1695165;83;25740;-74
2021/04/23 02:58:16;;;;;;;18.17;8.05;;;;;;;3.22;74.83;100573.91;1694415;83;25811;-74
2021/04/23 03:00:47;;;;;;;13.95;7.58;;;;;;;3.23;74.91;100578.16;1696237;83;25993;-74
2021/04/23 03:03:14;;;;;;;16.07;7.08;;;;;;;3.20;74.76;100577.92;1697893;83;25835;-74
2021/04/23 03:05:43;;;;;;;15.50;7.53;;;;;;;3.19;74.77;100578.02;1693992;83;25824;-74
2021/04/23 03:08:11;;;;;;;16.05;7.15;;;;;;;3.15;74.77;100572.73;1694897;83;25735;-74
2021/04/23 03:10:42;;;;;;;13.65;6.25;;;;;;;3.11;74.74;100574.25;1675544;84;25557;-78
2021/04/23 03:13:13;;;;;;;14.78;7.28;;;;;;;3.09;74.93;100582.57;1663089;84;25761;-78
2021/04/23 03:15:40;;;;;;;10.75;6.37;;;;;;;3.06;74.80;100582.80;1693909;83;26453;-78
2021/04/23 03:18:10;;;;;;;15.00;6.95;;;;;;;3.08;74.66;100578.80;1662993;84;25871;-78
2021/04/23 03:20:35;;;;;;;14.30;6.30;;;;;;;3.05;74.77;100579.02;1695844;83;25706;-78
2021/04/23 03:23:02;;;;;;;12.30;5.77;;;;;;;3.04;74.58;100585.13;1675422;84;25744;-78
2021/04/23 03:25:30;;;;;;;13.83;7.50;;;;;;;3.01;74.73;100576.32;1655917;84;25408;-74
2021/04/23 03:27:58;;;;;;;12.73;6.20;;;;;;;3.00;74.69;100579.81;1665900;84;26445;-74
2021/04/23 03:30:29;;;;;;;14.75;6.97;;;;;;;2.98;74.65;100586.40;1670307;84;25704;-74
2021/04/23 03:32:55;;;;;;;13.05;6.75;;;;;;;2.95;74.80;100584.04;1657238;84;26113;-75
2021/04/23 03:35:22;;;;;;;12.80;6.72;;;;;;;2.95;74.77;100594.38;1673548;84;25783;-78
2021/04/23 03:37:48;;;;;;;14.40;6.37;;;;;;;2.94;74.60;100588.83;1675385;84;25721;-78
2021/04/23 03:40:18;;;;;;;11.03;5.97;;;;;;;2.95;74.71;100594.38;1659302;84;25932;-79
2021/04/23 03:42:44;;;;;;;10.38;6.28;;;;;;;2.93;74.74;100600.09;1670939;84;25780;-78
2021/04/23 03:45:14;;;;;;;16.37;6.47;;;;;;;2.95;74.52;100606.46;1671516;84;25823;-78
2021/04/23 03:47:40;;;;;;;17.20;8.28;;;;;;;2.94;74.42;100606.90;1671988;84;25871;-78
2021/04/23 03:50:09;;;;;;;13.80;7.40;;;;;;;2.93;74.41;100613.01;1680331;84;25877;-78
2021/04/23 03:52:35;;;;;;;16.40;7.53;;;;;;;2.96;74.42;100612.78;1678313;84;26534;-78
2021/04/23 03:55:08;;;;;;;22.17;8.87;;;;;;;2.97;74.46;100611.02;1690365;83;30480;-78
2021/04/23 03:57:35;;;;;;;19.60;12.28;;;;;;;2.97;74.32;100613.13;1657990;84;25856;-78
2021/04/23 04:00:09;;;;;;;19.77;10.75;;;;;;;2.98;74.21;100617.85;1662930;84;25802;-78
2021/04/23 04:02:39;;;;;;;18.82;8.98;;;;;;;2.99;74.22;100626.77;1699571;82;26473;-78
2021/04/23 04:05:08;;;;;;;15.70;8.90;;;;;;;3.02;74.17;100618.80;1698096;83;26341;-78
2021/04/23 04:07:34;;;;;;;14.65;9.20;;;;;;;3.03;74.07;100626.92;1694419;83;25928;-78
2021/04/23 04:10:00;;;;;;;14.90;8.30;;;;;;;3.04;74.07;100629.02;1665756;84;36154;-78
2021/04/23 04:12:26;;;;;;;18.02;7.95;;;;;;;3.02;74.29;100634.28;1700785;83;26512;-79
2021/04/23 04:14:52;;;;;;;16.10;8.37;;;;;;;3.04;74.21;100635.48;1696904;83;25886;-78
2021/04/23 04:17:19;;;;;;;18.63;8.10;;;;;;;3.05;74.15;100636.64;1694131;83;25802;-79
2021/04/23 04:19:45;;;;;;;13.22;7.53;;;;;;;3.07;74.29;100644.30;1698596;83;25738;-78
2021/04/23 04:22:10;;;;;;;18.03;8.40;;;;;;;3.10;74.23;100649.23;1699103;83;25721;-78
2021/04/23 04:24:37;;;;;;;15.10;6.72;;;;;;;3.13;74.44;100652.07;1686596;83;44719;-79
2021/04/23 04:27:03;;;;;;;14.10;7.77;;;;;;;3.15;74.46;100656.19;1655970;85;25885;-78
2021/04/23 04:29:29;;;;;;;19.07;7.70;;;;;;;3.17;74.44;100658.68;1693877;83;25785;-78
2021/04/23 04:31:55;;;;;;;13.97;8.20;;;;;;;3.21;74.40;100660.91;1662978;84;25875;-78
2021/04/23 04:34:20;;;;;;;12.90;7.90;;;;;;;3.25;74.37;100661.06;1659782;84;25351;-78
2021/04/23 04:36:47;;;;;;;17.93;8.50;;;;;;;3.28;74.45;100666.48;1664900;84;25847;-78
2021/04/23 04:39:12;;;;;;;16.90;7.72;;;;;;;3.30;74.56;100665.44;1669588;84;25777;-78
2021/04/23 04:41:38;;;;;;;16.23;7.90;;;;;;;3.32;74.55;100665.30;1676549;84;26368;-78
2021/04/23 04:44:05;;;;;;;17.30;6.87;;;;;;;3.33;74.33;100666.50;1695806;83;26460;-78
2021/04/23 04:46:32;;;;;;;17.77;7.90;;;;;;;3.39;74.32;100666.52;1664085;84;25867;-74
2021/04/23 04:48:58;;;;;;;13.53;6.53;;;;;;;3.45;74.25;100671.23;1698886;83;25794;-74
2021/04/23 04:51:24;;;;;;;14.33;7.05;;;;;;;3.50;74.14;100670.44;1697418;83;25782;-74
2021/04/23 04:53:50;;;;;;;12.30;6.63;;;;;;;3.53;73.94;100675.38;1679599;84;25746;-74
2021/04/23 04:56:16;;;;;;;16.63;8.47;;;;;;;3.54;74.12;100671.84;1678135;84;25794;-78
2021/04/23 04:58:43;;;;;;;16.95;7.87;;;;;;;3.57;74.02;100675.97;1677661;84;25853;-78
2021/04/23 05:01:11;;;;;;;18.40;8.63;;;;;;;3.59;73.99;100676.70;1698779;83;25926;-78
2021/04/23 05:03:37;;;;;;;16.67;8.03;;;;;;;3.62;73.95;100682.92;1699752;83;25690;-78
2021/04/23 05:06:05;;;;;;;17.70;7.58;;;;;;;3.64;73.90;100685.41;1692282;83;25931;-78
2021/04/23 05:08:32;;;;;;;18.60;7.78;;;;;;;3.66;73.86;100690.83;1675808;84;26051;-78
2021/04/23 05:10:57;;;;;;;16.73;7.12;;;;;;;3.69;73.83;100687.20;1659510;84;25926;-78
2021/04/23 05:13:23;;;;;;;18.90;7.77;;;;;;;3.72;73.89;100694.25;1667264;84;25845;-78
2021/04/23 05:15:49;;;;;;;17.27;8.17;;;;;;;3.75;73.89;100695.78;1671884;84;25953;-78
2021/04/23 05:18:15;;;;;;;14.83;7.03;;;;;;;3.77;73.85;100696.03;1671820;84;25796;-78
2021/04/23 05:20:41;;;;;;;19.77;8.17;;;;;;;3.80;73.77;100694.98;1663128;84;25738;-78
2021/04/23 05:23:08;;;;;;;14.25;6.78;;;;;;;3.83;73.68;100697.81;1662488;84;25771;-78
2021/04/23 05:25:35;;;;;;;14.90;7.03;;;;;;;3.88;73.68;100696.53;1664183;84;25894;-78
2021/04/23 05:28:04;;;;;;;17.27;7.50;;;;;;;3.96;73.66;100702.44;1672802;84;25862;-78
2021/04/23 05:30:33;;;;;;;13.65;7.83;;;;;;;4.02;73.57;100701.16;1668402;84;25939;-79
2021/04/23 05:33:01;;;;;;;18.07;7.27;;;;;;;4.09;73.42;100696.71;1670953;84;25757;-78
2021/04/23 05:35:29;;;;;;;14.30;7.17;;;;;;;4.14;73.36;100691.98;1671486;84;25815;-79
2021/04/23 05:37:56;;;;;;;18.20;6.97;;;;;;;4.19;73.15;100692.47;1679877;84;26123;-78
2021/04/23 05:40:33;;;;;;;18.15;7.45;;;;;;;4.25;73.23;100707.18;1672294;84;25762;-78
2021/04/23 05:43:00;;;;;;;13.95;6.75;;;;;;;4.27;72.81;100707.42;1680412;84;25846;-78
2021/04/23 05:45:26;;;;;;;13.85;7.03;;;;;;;4.27;72.88;100703.54;1652358;84;25891;-79
2021/04/23 05:47:54;;;;;;;13.60;8.00;;;;;;;4.31;72.99;100704.97;1696774;83;25929;-78
2021/04/23 05:50:21;;;;;;;23.25;10.13;;;;;;;4.37;72.87;100706.27;1650210;85;25833;-79
2021/04/23 05:52:48;;;;;;;17.55;8.58;;;;;;;4.42;72.82;100710.16;1665255;84;26559;-78
2021/04/23 05:55:18;;;;;;;17.40;8.68;;;;;;;4.43;72.85;100707.91;1647318;85;26517;-79
2021/04/23 05:57:44;;;;;;;17.17;8.35;;;;;;;4.50;73.01;100713.45;1693914;83;26610;-74
2021/04/23 06:00:15;;;;;;;15.13;7.65;;;;;;;4.55;72.76;100712.61;1692812;83;25872;-78
2021/04/23 06:02:41;;;;;;;17.02;8.48;;;;;;;4.62;72.80;100720.27;1696491;83;25777;-78
2021/04/23 06:05:09;;;;;;;17.17;7.80;;;;;;;4.68;72.58;100715.09;1697998;83;26558;-78
2021/04/23 06:07:35;;;;;;;19.30;7.92;;;;;;;4.73;72.35;100722.03;1695067;83;25830;-78
2021/04/23 06:10:01;;;;;;;12.85;6.30;;;;;;;4.75;72.20;100720.16;1695597;83;25786;-78
2021/04/23 06:12:29;;;;;;;16.27;6.80;;;;;;;4.82;72.01;100725.67;1695697;83;25839;-79
2021/04/23 06:14:54;;;;;;;14.20;7.15;;;;;;;4.83;71.73;100729.93;1696094;83;26018;-78
2021/04/23 06:17:20;;;;;;;16.47;6.83;;;;;;;4.84;71.74;100720.73;1676338;84;25944;-78
2021/04/23 06:19:46;;;;;;;13.23;7.13;;;;;;;4.94;71.65;100729.92;1666385;84;26119;-78
2021/04/23 06:22:12;;;;;;;14.07;7.13;;;;;;;4.99;71.42;100727.80;1697575;83;26639;-79
2021/04/23 06:24:38;;;;;;;16.12;7.15;;;;;;;5.03;71.22;100725.78;1699147;83;25741;-78
2021/04/23 06:27:05;;;;;;;12.07;6.93;;;;;;;5.10;71.30;100726.92;1697487;83;27128;-75
2021/04/23 06:29:33;;;;;;;13.72;5.72;;;;;;;5.18;70.80;100721.15;1696516;83;26482;-73
2021/04/23 06:31:59;;;;;;;18.17;7.42;;;;;;;5.29;70.43;100723.71;1663941;84;25752;-75
2021/04/23 06:34:26;;;;;;;14.10;6.17;;;;;;;5.44;70.74;100728.16;1669500;84;25871;-74
2021/04/23 06:36:51;;;;;;;16.40;6.58;;;;;;;5.56;69.97;100724.13;1670735;84;25996;-75
2021/04/23 06:39:19;;;;;;;19.80;7.27;;;;;;;5.64;69.48;100724.78;1670425;84;27307;-74
2021/04/23 06:41:46;;;;;;;15.75;7.67;;;;;;;5.68;68.95;100724.89;1671959;84;25749;-76
2021/04/23 06:44:14;;;;;;;14.63;7.62;;;;;;;5.72;69.33;100722.86;1670591;84;25798;-76
2021/04/23 06:46:41;;;;;;;14.87;7.75;;;;;;;5.75;69.32;100726.50;1677736;84;26542;-75
2021/04/23 06:49:07;;;;;;;16.00;6.35;;;;;;;5.83;68.91;100724.11;1697038;83;26396;-77
2021/04/23 06:51:33;;;;;;;14.07;6.57;;;;;;;5.90;67.91;100724.45;1652529;85;29279;-73
2021/04/23 06:53:59;;;;;;;15.80;6.20;;;;;;;5.93;67.56;100725.04;1664865;84;25880;-73
2021/04/23 06:56:24;;;;;;;14.05;6.78;;;;;;;6.02;68.27;100725.23;1690991;83;27050;-75
2021/04/23 06:58:50;;;;;;;13.77;6.70;;;;;;;6.08;67.53;100716.94;1675607;84;26227;-74
2021/04/23 07:01:17;;;;;;;13.77;5.27;;;;;;;6.13;67.84;100720.79;1696333;83;25874;-73
2021/04/23 07:03:44;;;;;;;13.78;5.95;;;;;;;6.20;67.24;100721.94;1696524;83;25807;-73
2021/04/23 07:06:10;;;;;;;15.45;6.08;;;;;;;6.23;66.72;100728.17;1697163;83;25779;-73
2021/04/23 07:08:38;;;;;;;11.10;6.17;;;;;;;6.23;67.02;100729.95;1698085;83;25867;-76
2021/04/23 07:11:04;;;;;;;12.25;5.40;;;;;;;6.28;66.46;100727.80;1697604;83;25771;-73
2021/04/23 07:13:31;;;;;;;9.98;5.50;;;;;;;6.32;66.08;100729.65;1699166;83;25857;-75
2021/04/23 07:15:56;;;;;;;13.05;6.03;;;;;;;6.30;65.71;100731.09;1650776;85;25746;-74
2021/04/23 07:18:22;;;;;;;17.33;6.33;;;;;;;6.28;65.70;100726.98;1664131;84;26958;-76
2021/04/23 07:20:51;;;;;;;15.43;6.53;;;;;;;6.31;65.54;100722.83;1665547;84;26009;-76
2021/04/23 07:23:17;;;;;;;13.03;6.65;;;;;;;6.38;65.42;100722.64;1665288;84;25803;-72
2021/04/23 07:25:43;;;;;;;11.50;5.67;;;;;;;6.50;65.60;100722.10;1673701;84;25877;-75
2021/04/23 07:28:09;;;;;;;12.40;5.87;;;;;;;6.66;65.67;100716.77;1674435;84;25977;-73
2021/04/23 07:30:37;;;;;;;11.30;6.65;;;;;;;6.81;66.06;100719.00;1676991;84;25427;-74
2021/04/23 07:33:08;;;;;;;14.18;6.75;;;;;;;6.87;64.61;100711.52;1680106;84;26500;-76
2021/04/23 07:35:34;;;;;;;10.70;5.72;;;;;;;6.85;64.44;100720.40;1673911;84;25998;-72
2021/04/23 07:38:01;;;;;;;16.07;6.43;;;;;;;6.89;64.52;100723.06;1695407;83;25814;-75
2021/04/23 07:40:30;;;;;;;12.35;5.83;;;;;;;6.89;64.98;100721.28;1649873;85;25776;-74
2021/04/23 07:42:55;;;;;;;11.25;5.53;;;;;;;6.95;63.95;100718.63;1674523;84;25837;-75
2021/04/23 07:45:22;;;;;;;16.70;6.57;;;;;;;6.99;64.15;100720.02;1666850;84;25603;-75
2021/04/23 07:47:48;;;;;;;11.55;5.83;;;;;;;7.04;63.03;100723.05;1697441;83;25386;-76
2021/04/23 07:50:18;;;;;;;10.00;5.20;;;;;;;7.05;63.14;100718.66;1698186;83;25661;-75
2021/04/23 07:52:45;;;;;;;13.30;5.75;;;;;;;7.06;61.37;100722.41;1667728;84;25849;-75
2021/04/23 07:55:12;;;;;;;11.25;5.55;;;;;;;7.05;62.52;100723.87;1697659;83;25789;-72
2021/04/23 07:57:38;;;;;;;17.73;5.95;;;;;;;7.06;62.01;100722.90;1701968;83;26628;-72
2021/04/23 08:00:08;;;;;;;13.93;6.30;;;;;;;7.04;62.22;100722.23;1700841;83;26143;-72
2021/04/23 08:02:37;;;;;;;14.00;6.33;;;;;;;7.04;62.91;100714.44;1642270;85;25316;-72
2021/04/23 08:05:05;;;;;;;13.80;5.50;;;;;;;7.09;62.06;100719.58;1699296;83;26554;-74
2021/04/23 08:07:30;;;;;;;14.25;6.40;;;;;;;7.14;61.29;100712.66;1698425;83;25389;-73
2021/04/23 08:09:56;;;;;;;13.87;6.27;;;;;;;7.12;61.47;100711.99;1697671;82;25511;-75
2021/04/23 08:12:22;;;;;;;14.87;5.77;;;;;;;7.05;60.80;100714.77;1690752;83;25900;-74
2021/04/23 08:14:48;;;;;;;10.50;5.13;;;;;;;7.00;61.47;100716.45;1694684;83;25759;-73
2021/04/23 08:17:13;;;;;;;13.83;5.43;;;;;;;7.03;60.58;100714.07;1696780;83;30174;-72
2021/04/23 08:19:39;;;;;;;12.33;6.13;;;;;;;7.11;60.61;100713.74;1697082;83;29429;-71
2021/04/23 08:22:05;;;;;;;10.10;5.27;;;;;;;7.26;60.62;100718.58;1698469;83;25715;-72
2021/04/23 08:24:32;;;;;;;12.23;5.30;;;;;;;7.37;59.71;100717.16;1685084;83;25912;-73
2021/04/23 08:26:58;;;;;;;11.88;5.22;;;;;;;7.50;59.75;100711.67;1690059;83;25817;-75
2021/04/23 08:29:24;;;;;;;12.50;5.85;;;;;;;7.68;59.62;100708.73;1680597;83;25838;-71
2021/04/23 08:31:49;;;;;;;10.13;4.20;;;;;;;7.88;59.08;100713.44;1699139;83;29780;-76
2021/04/23 08:34:15;;;;;;;10.83;4.90;;;;;;;7.99;58.42;100704.20;1666036;84;25908;-73
2021/04/23 08:36:41;;;;;;;8.50;3.83;;;;;;;8.03;56.23;100713.03;1696601;83;25848;-72
2021/04/23 08:39:10;;;;;;;10.20;5.03;;;;;;;8.07;55.70;100708.69;1663297;84;26040;-74
2021/04/23 08:41:39;;;;;;;8.83;4.77;;;;;;;8.13;57.46;100707.30;1670281;84;25857;-72
2021/04/23 08:44:06;;;;;;;10.55;5.53;;;;;;;8.29;57.80;100710.63;1658450;84;25826;-72
2021/04/23 08:46:33;;;;;;;9.28;5.15;;;;;;;8.43;56.03;100711.53;1677230;84;25887;-74
2021/04/23 08:49:01;;;;;;;11.55;5.15;;;;;;;8.43;55.35;100716.25;1693101;83;25746;-75
2021/04/23 08:51:28;;;;;;;10.82;4.80;;;;;;;8.51;56.83;100705.58;1701606;83;25574;-72
2021/04/23 08:53:57;;;;;;;9.48;5.92;;;;;;;8.66;56.68;100693.25;1678004;83;25997;-72
2021/04/23 08:56:23;;;;;;;7.75;4.62;;;;;;;8.82;55.93;100697.84;1697566;83;26009;-73
2021/04/23 08:58:49;;;;;;;12.73;4.80;;;;;;;8.79;53.95;100701.23;1696679;83;26116;-73
2021/04/23 09:01:15;;;;;;;8.98;4.55;;;;;;;8.69;53.80;100705.66;1702703;82;25953;-72
2021/04/23 09:03:41;;;;;;;7.47;4.78;;;;;;;8.55;54.03;100709.06;1696636;83;25876;-73
2021/04/23 09:06:24;;;;;;;8.20;4.15;;;;;;;8.44;53.62;100700.13;1680100;84;25325;-73
2021/04/23 09:08:59;;;;;;;11.00;4.97;;;;;;;8.36;52.96;100705.20;1676226;84;25713;-74
2021/04/23 09:11:40;;;;;;;17.50;5.05;;;;;;;8.28;53.33;100711.11;1655779;84;25878;-71
2021/04/23 09:14:20;;;;;;;9.70;4.67;;;;;;;8.29;54.07;100717.95;1683152;84;25809;-74
2021/04/23 09:16:59;;;;;;;11.03;5.05;;;;;;;8.23;54.26;100706.31;1666118;84;25394;-75
2021/04/23 09:19:33;;;;;;;10.15;4.25;;;;;;;8.17;54.59;100707.38;1692027;83;25778;-75
2021/04/23 09:22:07;;;;;;;10.35;4.70;;;;;;;8.13;54.03;100704.24;1643545;85;25356;-72
2021/04/23 09:24:40;;;;;;;12.13;4.30;;;;;;;8.13;53.39;100691.22;1694909;83;25882;-73
2021/04/23 09:27:17;;;;;;;9.25;4.70;;;;;;;8.22;52.98;100694.76;1641126;85;25856;-75
2021/04/23 09:29:46;;;;;;;8.38;2.42;;;;;;;8.41;53.65;100701.72;1690948;83;25792;-75
2021/04/23 09:32:22;;;;;;;6.08;3.00;;;;;;;8.43;48.65;100716.73;1696674;83;25759;-74
2021/04/23 09:35:06;;;;;;;5.65;2.52;;;;;;;8.22;51.07;100699.48;1676909;84;26583;-72
2021/04/23 09:37:55;;;;;;;10.00;3.58;;;;;;;8.12;51.51;100695.25;1695165;83;25833;-73
2021/04/23 09:40:31;;;;;;;12.13;4.70;;;;;;;8.07;50.96;100697.45;1692086;83;25906;-73
2021/04/23 09:43:04;;;;;;;10.25;4.10;;;;;;;8.05;52.10;100686.35;1697079;83;25747;-74
2021/04/23 09:45:34;;;;;;;9.65;4.53;;;;;;;8.11;52.17;100681.42;1698368;83;25539;-71
2021/04/23 09:48:03;;;;;;;8.60;4.58;;;;;;;8.27;52.54;100674.33;1693912;83;25889;-71
2021/04/23 09:50:38;;;;;;;10.65;4.55;;;;;;;8.52;53.31;100670.28;1690161;83;25795;-72
2021/04/23 09:53:07;;;;;;;9.63;5.03;;;;;;;8.77;52.24;100658.84;1650108;85;25828;-73
2021/04/23 09:55:35;;;;;;;7.78;4.30;;;;;;;9.00;51.67;100657.48;1697927;83;26612;-73
2021/04/23 09:58:05;;;;;;;7.50;3.85;;;;;;;9.25;51.45;100673.37;1702372;83;25772;-73
2021/04/23 10:00:38;;;;;;;8.57;3.47;;;;;;;9.30;49.94;100656.76;1705715;83;25239;-72
2021/04/23 10:03:05;;;;;;;5.47;3.20;;;;;;;9.20;46.57;100646.42;1698025;83;25817;-70
2021/04/23 10:05:39;;;;;;;10.23;3.17;;;;;;;9.11;46.74;100645.98;1657765;85;25728;-72
2021/04/23 10:08:24;;;;;;;8.90;3.15;;;;;;;9.16;46.78;100642.94;1678782;83;25894;-73
2021/04/23 10:10:54;;;;;;;8.33;3.60;;;;;;;9.29;48.84;100635.56;1702459;82;25806;-75
2021/04/23 10:13:30;;;;;;;10.57;3.50;;;;;;;9.46;46.71;100643.86;1676628;84;25861;-72
2021/04/23 10:15:57;;;;;;;7.10;3.60;;;;;;;9.51;46.63;100644.23;1676132;82;25964;-73
2021/04/23 10:18:23;;;;;;;8.23;3.33;;;;;;;9.69;46.36;100641.60;1668616;84;25384;-73
2021/04/23 10:20:52;;;;;;;8.17;2.97;;;;;;;9.75;46.11;100632.34;1662982;84;25417;-75
2021/04/23 10:23:23;;;;;;;5.35;2.60;;;;;;;9.85;46.35;100640.06;1665839;84;26613;-75
2021/04/23 10:25:53;;;;;;;8.28;2.83;;;;;;;9.93;44.42;100637.50;1692663;83;26823;-74
2021/04/23 10:28:22;;;;;;;7.37;3.20;;;;;;;10.00;44.70;100623.68;1697066;83;26367;-72
2021/04/23 10:30:54;;;;;;;6.20;2.98;;;;;;;10.13;44.69;100626.38;1676030;84;26319;-72
2021/04/23 10:33:24;;;;;;;6.35;2.80;;;;;;;10.17;45.42;100623.27;1654035;85;26336;-72
2021/04/23 10:35:55;;;;;;;5.97;2.70;;;;;;;10.16;45.34;100619.53;1675424;84;25855;-72
2021/04/23 10:38:29;;;;;;;6.95;3.35;;;;;;;10.27;43.75;100644.56;1676112;84;25733;-72
2021/04/23 10:41:07;;;;;;;9.23;3.00;;;;;;;10.27;43.51;100665.00;1695165;83;25727;-72
2021/04/23 10:43:35;;;;;;;9.68;3.47;;;;;;;10.03;44.17;100683.11;1704151;82;25844;-72
2021/04/23 10:46:12;;;;;;;9.43;2.60;;;;;;;9.86;45.85;100711.72;1695463;83;25774;-72
2021/04/23 10:48:46;;;;;;;8.33;2.62;;;;;;;9.10;51.00;100726.50;1695575;83;26216;-71
2021/04/23 10:51:24;;;;;;;12.20;2.98;;;;;;;8.36;52.78;100746.38;1692000;83;25841;-71
2021/04/23 10:53:54;;;;;;;6.83;3.20;;;;;;;7.81;54.71;100749.28;1696638;83;25920;-73
2021/04/23 10:56:30;;;;;;;5.95;2.60;;;;;;;7.42;56.13;100729.73;1695243;83;25892;-73
2021/04/23 10:59:04;;;;;;;5.90;2.87;;;;;;;7.03;57.71;100714.89;1667087;84;26389;-76
2021/04/23 11:01:37;;;;;;;3.62;2.27;;;;;;;6.78;59.06;100698.00;1696167;83;25723;-74
2021/04/23 11:04:08;;;;;;;5.78;3.40;;;;;;;6.71;60.65;100722.03;1665416;84;25439;-75
2021/04/23 11:06:41;;;;;;;6.58;3.10;;;;;;;6.57;60.74;100729.22;1673277;84;26255;-73
2021/04/23 11:09:11;;;;;;;6.12;2.50;;;;;;;6.47;62.25;100750.45;1659667;84;25856;-72
2021/04/23 11:11:40;;;;;;;6.58;2.72;;;;;;;6.41;62.00;100762.17;1674633;84;25967;-75
2021/04/23 11:14:32;;;;;;;8.88;3.60;;;;;;;6.33;62.41;100770.22;1673564;84;26330;-76
2021/04/23 11:17:20;;;;;;;4.42;2.92;;;;;;;6.25;61.86;100770.88;1673467;84;25786;-72
2021/04/23 11:19:52;;;;;;;4.67;2.98;;;;;;;6.19;63.99;100790.83;1668340;84;26034;-74
2021/04/23 11:22:21;;;;;;;4.95;3.10;;;;;;;6.13;65.31;100799.13;1701809;83;25973;-75
2021/04/23 11:25:11;;;;;;;10.58;4.22;;;;;;;6.02;67.30;100812.97;1698474;83;25815;-74
2021/04/23 11:28:03;;;;;;;8.30;3.80;;;;;;;5.83;67.18;100821.38;1697955;82;25837;-73
2021/04/23 11:31:01;;;;;;;4.40;2.98;;;;;;;5.75;67.88;100836.25;1693267;83;25907;-75
2021/04/23 11:33:55;;;;;;;6.58;4.00;;;;;;;5.58;69.40;100843.25;1700309;83;25856;-76
2021/04/23 11:36:38;;;;;;;4.53;3.30;;;;;;;5.40;70.56;100852.02;1699791;83;25776;-74
2021/04/23 11:39:09;;;;;;;8.40;3.87;;;;;;;5.18;69.96;100857.18;1698578;83;25393;-72